sensor_id;sensor_type;location;lat;lon;timestamp;P1;durP1;ratioP1;P2;durP2;ratioP2
11671;SDS011;5892;43.412;24.612;2024-03-02T00:02:01;40.38;;;16.10;;
11671;SDS011;5892;43.412;24.612;2024-03-02T00:04:26;43.88;;;17.98;;
11671;SDS011;5892;43.412;24.612;2024-03-02T00:06:53;43.85;;;19.38;;
11671;SDS011;5892;43.412;24.612;2024-03-02T00:09:21;38.60;;;17.60;;
11671;SDS011;5892;43.412;24.612;2024-03-02T00:11:48;41.75;;;18.95;;
11671;SDS011;5892;43.412;24.612;2024-03-02T00:14:14;44.05;;;15.80;;
11671;SDS011;5892;43.412;24.612;2024-03-02T00:16:40;38.47;;;17.73;;
11671;SDS011;5892;43.412;24.612;2024-03-02T00:19:08;40.40;;;18.75;;
11671;SDS011;5892;43.412;24.612;2024-03-02T00:21:35;37.80;;;16.52;;
11671;SDS011;5892;43.412;24.612;2024-03-02T00:24:01;46.08;;;19.50;;
11671;SDS011;5892;43.412;24.612;2024-03-02T00:29:11;40.13;;;17.60;;
11671;SDS011;5892;43.412;24.612;2024-03-02T00:31:41;44.95;;;18.58;;
11671;SDS011;5892;43.412;24.612;2024-03-02T00:34:10;42.15;;;17.52;;
11671;SDS011;5892;43.412;24.612;2024-03-02T00:36:41;47.67;;;18.48;;
11671;SDS011;5892;43.412;24.612;2024-03-02T00:39:07;48.95;;;19.38;;
11671;SDS011;5892;43.412;24.612;2024-03-02T00:41:33;45.60;;;17.10;;
11671;SDS011;5892;43.412;24.612;2024-03-02T00:43:59;40.90;;;17.42;;
11671;SDS011;5892;43.412;24.612;2024-03-02T00:46:34;45.97;;;17.45;;
11671;SDS011;5892;43.412;24.612;2024-03-02T00:49:01;35.05;;;15.77;;
11671;SDS011;5892;43.412;24.612;2024-03-02T00:51:30;38.75;;;16.23;;
11671;SDS011;5892;43.412;24.612;2024-03-02T00:54:07;41.03;;;17.27;;
11671;SDS011;5892;43.412;24.612;2024-03-02T00:56:34;39.97;;;17.10;;
11671;SDS011;5892;43.412;24.612;2024-03-02T00:59:00;41.00;;;17.33;;
11671;SDS011;5892;43.412;24.612;2024-03-02T01:01:26;42.15;;;18.98;;
11671;SDS011;5892;43.412;24.612;2024-03-02T01:03:53;36.33;;;15.48;;
11671;SDS011;5892;43.412;24.612;2024-03-02T01:06:18;45.53;;;18.65;;
11671;SDS011;5892;43.412;24.612;2024-03-02T01:08:44;46.88;;;17.92;;
11671;SDS011;5892;43.412;24.612;2024-03-02T01:11:10;39.97;;;18.08;;
11671;SDS011;5892;43.412;24.612;2024-03-02T01:13:36;45.45;;;19.20;;
11671;SDS011;5892;43.412;24.612;2024-03-02T01:16:01;41.72;;;17.40;;
11671;SDS011;5892;43.412;24.612;2024-03-02T01:18:27;43.50;;;17.42;;
11671;SDS011;5892;43.412;24.612;2024-03-02T01:20:54;37.15;;;16.80;;
11671;SDS011;5892;43.412;24.612;2024-03-02T01:23:23;36.30;;;17.95;;
11671;SDS011;5892;43.412;24.612;2024-03-02T01:25:49;37.78;;;15.98;;
11671;SDS011;5892;43.412;24.612;2024-03-02T01:28:17;40.63;;;17.70;;
11671;SDS011;5892;43.412;24.612;2024-03-02T01:30:44;41.53;;;16.88;;
11671;SDS011;5892;43.412;24.612;2024-03-02T01:33:09;42.15;;;18.08;;
11671;SDS011;5892;43.412;24.612;2024-03-02T01:35:36;36.10;;;16.65;;
11671;SDS011;5892;43.412;24.612;2024-03-02T01:38:02;38.03;;;16.15;;
11671;SDS011;5892;43.412;24.612;2024-03-02T01:40:29;40.50;;;18.08;;
11671;SDS011;5892;43.412;24.612;2024-03-02T01:42:54;38.95;;;15.68;;
11671;SDS011;5892;43.412;24.612;2024-03-02T01:45:21;36.92;;;17.15;;
11671;SDS011;5892;43.412;24.612;2024-03-02T01:47:46;40.53;;;16.67;;
11671;SDS011;5892;43.412;24.612;2024-03-02T01:50:12;34.58;;;14.57;;
11671;SDS011;5892;43.412;24.612;2024-03-02T01:52:39;32.05;;;15.63;;
11671;SDS011;5892;43.412;24.612;2024-03-02T01:55:04;31.50;;;16.05;;
11671;SDS011;5892;43.412;24.612;2024-03-02T01:57:32;31.95;;;15.32;;
11671;SDS011;5892;43.412;24.612;2024-03-02T01:59:59;34.90;;;16.70;;
11671;SDS011;5892;43.412;24.612;2024-03-02T02:02:25;39.85;;;16.02;;
11671;SDS011;5892;43.412;24.612;2024-03-02T02:04:51;34.55;;;15.88;;
11671;SDS011;5892;43.412;24.612;2024-03-02T02:07:16;33.03;;;15.45;;
11671;SDS011;5892;43.412;24.612;2024-03-02T02:09:42;33.97;;;14.95;;
11671;SDS011;5892;43.412;24.612;2024-03-02T02:12:08;31.77;;;15.10;;
11671;SDS011;5892;43.412;24.612;2024-03-02T02:14:35;38.25;;;16.58;;
11671;SDS011;5892;43.412;24.612;2024-03-02T02:17:00;34.78;;;16.70;;
11671;SDS011;5892;43.412;24.612;2024-03-02T02:19:26;34.65;;;16.63;;
11671;SDS011;5892;43.412;24.612;2024-03-02T02:21:51;32.03;;;14.90;;
11671;SDS011;5892;43.412;24.612;2024-03-02T02:24:17;40.08;;;17.50;;
11671;SDS011;5892;43.412;24.612;2024-03-02T02:26:42;31.30;;;15.35;;
11671;SDS011;5892;43.412;24.612;2024-03-02T02:29:09;33.35;;;16.35;;
11671;SDS011;5892;43.412;24.612;2024-03-02T02:31:38;34.08;;;14.25;;
11671;SDS011;5892;43.412;24.612;2024-03-02T02:34:05;30.90;;;14.55;;
11671;SDS011;5892;43.412;24.612;2024-03-02T02:36:33;29.27;;;15.57;;
11671;SDS011;5892;43.412;24.612;2024-03-02T02:39:03;32.92;;;14.88;;
11671;SDS011;5892;43.412;24.612;2024-03-02T02:41:29;26.77;;;14.00;;
11671;SDS011;5892;43.412;24.612;2024-03-02T02:43:56;28.52;;;13.48;;
11671;SDS011;5892;43.412;24.612;2024-03-02T02:46:22;27.80;;;13.50;;
11671;SDS011;5892;43.412;24.612;2024-03-02T02:48:47;24.00;;;11.35;;
11671;SDS011;5892;43.412;24.612;2024-03-02T02:51:13;27.38;;;12.07;;
11671;SDS011;5892;43.412;24.612;2024-03-02T02:53:38;23.48;;;11.45;;
11671;SDS011;5892;43.412;24.612;2024-03-02T02:56:08;26.27;;;11.60;;
11671;SDS011;5892;43.412;24.612;2024-03-02T02:58:34;23.73;;;11.30;;
11671;SDS011;5892;43.412;24.612;2024-03-02T03:01:01;24.42;;;9.18;;
11671;SDS011;5892;43.412;24.612;2024-03-02T03:03:29;22.08;;;9.63;;
11671;SDS011;5892;43.412;24.612;2024-03-02T03:05:54;23.17;;;9.55;;
11671;SDS011;5892;43.412;24.612;2024-03-02T03:08:20;26.70;;;10.18;;
11671;SDS011;5892;43.412;24.612;2024-03-02T03:10:45;24.75;;;10.23;;
11671;SDS011;5892;43.412;24.612;2024-03-02T03:13:11;21.35;;;10.20;;
11671;SDS011;5892;43.412;24.612;2024-03-02T03:15:37;23.58;;;11.32;;
11671;SDS011;5892;43.412;24.612;2024-03-02T03:18:04;19.85;;;9.75;;
11671;SDS011;5892;43.412;24.612;2024-03-02T03:20:30;18.55;;;9.85;;
11671;SDS011;5892;43.412;24.612;2024-03-02T03:22:59;23.80;;;9.63;;
11671;SDS011;5892;43.412;24.612;2024-03-02T03:25:25;20.75;;;9.95;;
11671;SDS011;5892;43.412;24.612;2024-03-02T03:27:51;22.42;;;9.20;;
11671;SDS011;5892;43.412;24.612;2024-03-02T03:30:19;16.55;;;9.52;;
11671;SDS011;5892;43.412;24.612;2024-03-02T03:32:44;21.42;;;11.13;;
11671;SDS011;5892;43.412;24.612;2024-03-02T03:35:10;23.80;;;10.40;;
11671;SDS011;5892;43.412;24.612;2024-03-02T03:37:37;25.70;;;9.93;;
11671;SDS011;5892;43.412;24.612;2024-03-02T03:40:03;21.75;;;10.13;;
11671;SDS011;5892;43.412;24.612;2024-03-02T03:42:32;24.08;;;10.27;;
11671;SDS011;5892;43.412;24.612;2024-03-02T03:44:57;21.90;;;9.93;;
11671;SDS011;5892;43.412;24.612;2024-03-02T03:47:23;20.88;;;10.48;;
11671;SDS011;5892;43.412;24.612;2024-03-02T03:49:49;18.55;;;8.82;;
11671;SDS011;5892;43.412;24.612;2024-03-02T03:52:15;18.30;;;10.65;;
11671;SDS011;5892;43.412;24.612;2024-03-02T03:54:40;28.02;;;11.23;;
11671;SDS011;5892;43.412;24.612;2024-03-02T03:57:08;20.17;;;9.48;;
11671;SDS011;5892;43.412;24.612;2024-03-02T03:59:33;21.27;;;9.98;;
11671;SDS011;5892;43.412;24.612;2024-03-02T04:01:59;21.08;;;8.15;;
11671;SDS011;5892;43.412;24.612;2024-03-02T04:04:24;22.02;;;9.77;;
11671;SDS011;5892;43.412;24.612;2024-03-02T04:06:50;23.27;;;9.45;;
11671;SDS011;5892;43.412;24.612;2024-03-02T04:09:15;22.50;;;10.52;;
11671;SDS011;5892;43.412;24.612;2024-03-02T04:11:41;21.70;;;9.75;;
11671;SDS011;5892;43.412;24.612;2024-03-02T04:14:06;21.50;;;10.75;;
11671;SDS011;5892;43.412;24.612;2024-03-02T04:16:31;25.95;;;11.02;;
11671;SDS011;5892;43.412;24.612;2024-03-02T04:18:57;28.83;;;9.50;;
11671;SDS011;5892;43.412;24.612;2024-03-02T04:21:22;24.40;;;10.43;;
11671;SDS011;5892;43.412;24.612;2024-03-02T04:23:48;32.40;;;11.25;;
11671;SDS011;5892;43.412;24.612;2024-03-02T04:26:14;26.02;;;10.23;;
11671;SDS011;5892;43.412;24.612;2024-03-02T04:28:44;21.95;;;10.02;;
11671;SDS011;5892;43.412;24.612;2024-03-02T04:31:10;26.73;;;10.38;;
11671;SDS011;5892;43.412;24.612;2024-03-02T04:33:35;27.65;;;10.68;;
11671;SDS011;5892;43.412;24.612;2024-03-02T04:36:01;21.02;;;9.73;;
11671;SDS011;5892;43.412;24.612;2024-03-02T04:38:27;24.48;;;9.65;;
11671;SDS011;5892;43.412;24.612;2024-03-02T04:40:53;18.55;;;9.40;;
11671;SDS011;5892;43.412;24.612;2024-03-02T04:43:19;20.63;;;10.52;;
11671;SDS011;5892;43.412;24.612;2024-03-02T04:45:44;24.42;;;10.20;;
11671;SDS011;5892;43.412;24.612;2024-03-02T04:48:10;25.15;;;10.15;;
11671;SDS011;5892;43.412;24.612;2024-03-02T04:50:36;21.98;;;10.18;;
11671;SDS011;5892;43.412;24.612;2024-03-02T04:53:01;22.30;;;9.73;;
11671;SDS011;5892;43.412;24.612;2024-03-02T04:55:27;25.48;;;10.30;;
11671;SDS011;5892;43.412;24.612;2024-03-02T04:57:53;24.70;;;9.85;;
11671;SDS011;5892;43.412;24.612;2024-03-02T05:00:21;25.85;;;10.68;;
11671;SDS011;5892;43.412;24.612;2024-03-02T05:02:47;22.30;;;10.02;;
11671;SDS011;5892;43.412;24.612;2024-03-02T05:05:12;31.75;;;11.20;;
11671;SDS011;5892;43.412;24.612;2024-03-02T05:07:41;28.38;;;11.35;;
11671;SDS011;5892;43.412;24.612;2024-03-02T05:10:08;26.98;;;9.38;;
11671;SDS011;5892;43.412;24.612;2024-03-02T05:12:36;23.58;;;11.23;;
11671;SDS011;5892;43.412;24.612;2024-03-02T05:15:10;22.25;;;10.88;;
11671;SDS011;5892;43.412;24.612;2024-03-02T05:17:38;32.13;;;12.35;;
11671;SDS011;5892;43.412;24.612;2024-03-02T05:20:08;32.10;;;12.77;;
11671;SDS011;5892;43.412;24.612;2024-03-02T05:22:34;33.35;;;12.13;;
11671;SDS011;5892;43.412;24.612;2024-03-02T05:25:01;25.75;;;12.93;;
11671;SDS011;5892;43.412;24.612;2024-03-02T05:27:27;28.58;;;11.85;;
11671;SDS011;5892;43.412;24.612;2024-03-02T05:29:53;21.05;;;11.35;;
11671;SDS011;5892;43.412;24.612;2024-03-02T05:32:18;27.55;;;11.55;;
11671;SDS011;5892;43.412;24.612;2024-03-02T05:34:44;23.50;;;10.85;;
11671;SDS011;5892;43.412;24.612;2024-03-02T05:37:09;23.58;;;10.90;;
11671;SDS011;5892;43.412;24.612;2024-03-02T05:39:35;27.08;;;12.15;;
11671;SDS011;5892;43.412;24.612;2024-03-02T05:42:00;28.25;;;11.57;;
11671;SDS011;5892;43.412;24.612;2024-03-02T05:44:26;30.40;;;11.77;;
11671;SDS011;5892;43.412;24.612;2024-03-02T05:46:51;27.30;;;11.85;;
11671;SDS011;5892;43.412;24.612;2024-03-02T05:49:18;26.40;;;11.98;;
11671;SDS011;5892;43.412;24.612;2024-03-02T05:51:44;27.33;;;11.63;;
11671;SDS011;5892;43.412;24.612;2024-03-02T05:54:09;27.10;;;12.77;;
11671;SDS011;5892;43.412;24.612;2024-03-02T05:56:35;25.70;;;12.40;;
11671;SDS011;5892;43.412;24.612;2024-03-02T05:59:02;27.90;;;11.80;;
11671;SDS011;5892;43.412;24.612;2024-03-02T06:01:41;30.00;;;11.23;;
11671;SDS011;5892;43.412;24.612;2024-03-02T06:04:08;30.42;;;11.30;;
11671;SDS011;5892;43.412;24.612;2024-03-02T06:06:37;27.40;;;11.05;;
11671;SDS011;5892;43.412;24.612;2024-03-02T06:09:03;23.88;;;11.25;;
11671;SDS011;5892;43.412;24.612;2024-03-02T06:11:42;22.25;;;11.13;;
11671;SDS011;5892;43.412;24.612;2024-03-02T06:14:07;21.77;;;10.32;;
11671;SDS011;5892;43.412;24.612;2024-03-02T06:16:34;22.23;;;11.38;;
11671;SDS011;5892;43.412;24.612;2024-03-02T06:19:00;23.05;;;11.85;;
11671;SDS011;5892;43.412;24.612;2024-03-02T06:21:28;27.30;;;12.25;;
11671;SDS011;5892;43.412;24.612;2024-03-02T06:23:53;24.38;;;11.15;;
11671;SDS011;5892;43.412;24.612;2024-03-02T06:26:19;26.05;;;12.52;;
11671;SDS011;5892;43.412;24.612;2024-03-02T06:28:46;29.70;;;12.27;;
11671;SDS011;5892;43.412;24.612;2024-03-02T06:31:11;33.88;;;12.73;;
11671;SDS011;5892;43.412;24.612;2024-03-02T06:33:38;27.80;;;13.07;;
11671;SDS011;5892;43.412;24.612;2024-03-02T06:36:06;24.92;;;12.07;;
11671;SDS011;5892;43.412;24.612;2024-03-02T06:38:36;26.17;;;14.32;;
11671;SDS011;5892;43.412;24.612;2024-03-02T06:41:02;27.73;;;14.45;;
11671;SDS011;5892;43.412;24.612;2024-03-02T06:43:27;27.67;;;12.85;;
11671;SDS011;5892;43.412;24.612;2024-03-02T06:45:53;28.45;;;12.32;;
11671;SDS011;5892;43.412;24.612;2024-03-02T06:48:19;24.55;;;11.60;;
11671;SDS011;5892;43.412;24.612;2024-03-02T06:50:48;25.60;;;13.30;;
11671;SDS011;5892;43.412;24.612;2024-03-02T06:53:14;24.67;;;11.63;;
11671;SDS011;5892;43.412;24.612;2024-03-02T06:55:44;27.50;;;12.23;;
11671;SDS011;5892;43.412;24.612;2024-03-02T06:58:13;24.67;;;12.35;;
11671;SDS011;5892;43.412;24.612;2024-03-02T07:00:42;27.52;;;12.32;;
11671;SDS011;5892;43.412;24.612;2024-03-02T07:03:09;24.73;;;11.60;;
11671;SDS011;5892;43.412;24.612;2024-03-02T07:05:35;27.05;;;12.88;;
11671;SDS011;5892;43.412;24.612;2024-03-02T07:08:01;30.10;;;12.57;;
11671;SDS011;5892;43.412;24.612;2024-03-02T07:10:28;33.38;;;13.65;;
11671;SDS011;5892;43.412;24.612;2024-03-02T07:12:54;31.20;;;11.80;;
11671;SDS011;5892;43.412;24.612;2024-03-02T07:15:19;24.77;;;11.45;;
11671;SDS011;5892;43.412;24.612;2024-03-02T07:17:54;31.40;;;11.95;;
11671;SDS011;5892;43.412;24.612;2024-03-02T07:20:20;23.58;;;11.45;;
11671;SDS011;5892;43.412;24.612;2024-03-02T07:22:46;24.98;;;10.35;;
11671;SDS011;5892;43.412;24.612;2024-03-02T07:25:12;26.33;;;11.52;;
11671;SDS011;5892;43.412;24.612;2024-03-02T07:27:38;36.22;;;12.48;;
11671;SDS011;5892;43.412;24.612;2024-03-02T07:30:04;33.70;;;11.90;;
11671;SDS011;5892;43.412;24.612;2024-03-02T07:32:30;26.73;;;12.82;;
11671;SDS011;5892;43.412;24.612;2024-03-02T07:34:55;22.25;;;10.75;;
11671;SDS011;5892;43.412;24.612;2024-03-02T07:37:22;29.38;;;10.85;;
11671;SDS011;5892;43.412;24.612;2024-03-02T07:39:48;28.48;;;11.13;;
11671;SDS011;5892;43.412;24.612;2024-03-02T07:42:14;26.15;;;11.65;;
11671;SDS011;5892;43.412;24.612;2024-03-02T07:44:40;26.20;;;10.80;;
11671;SDS011;5892;43.412;24.612;2024-03-02T07:47:06;23.50;;;10.82;;
11671;SDS011;5892;43.412;24.612;2024-03-02T07:49:32;28.67;;;11.30;;
11671;SDS011;5892;43.412;24.612;2024-03-02T07:51:58;23.63;;;11.45;;
11671;SDS011;5892;43.412;24.612;2024-03-02T07:54:24;34.95;;;12.98;;
11671;SDS011;5892;43.412;24.612;2024-03-02T07:56:49;21.65;;;10.70;;
11671;SDS011;5892;43.412;24.612;2024-03-02T07:59:15;26.65;;;11.23;;
11671;SDS011;5892;43.412;24.612;2024-03-02T08:01:40;27.20;;;10.73;;
11671;SDS011;5892;43.412;24.612;2024-03-02T08:04:08;24.67;;;11.38;;
11671;SDS011;5892;43.412;24.612;2024-03-02T08:06:34;24.02;;;12.27;;
11671;SDS011;5892;43.412;24.612;2024-03-02T08:09:00;33.08;;;11.02;;
11671;SDS011;5892;43.412;24.612;2024-03-02T08:11:26;24.55;;;11.23;;
11671;SDS011;5892;43.412;24.612;2024-03-02T08:13:54;26.63;;;11.05;;
11671;SDS011;5892;43.412;24.612;2024-03-02T08:16:20;24.20;;;10.93;;
11671;SDS011;5892;43.412;24.612;2024-03-02T08:18:50;22.00;;;10.60;;
11671;SDS011;5892;43.412;24.612;2024-03-02T08:21:16;25.83;;;12.32;;
11671;SDS011;5892;43.412;24.612;2024-03-02T08:23:42;25.13;;;11.25;;
11671;SDS011;5892;43.412;24.612;2024-03-02T08:26:08;28.95;;;11.48;;
11671;SDS011;5892;43.412;24.612;2024-03-02T08:28:36;23.10;;;10.80;;
11671;SDS011;5892;43.412;24.612;2024-03-02T08:31:08;25.52;;;12.52;;
11671;SDS011;5892;43.412;24.612;2024-03-02T08:33:34;30.05;;;12.48;;
11671;SDS011;5892;43.412;24.612;2024-03-02T08:36:01;31.73;;;11.65;;
11671;SDS011;5892;43.412;24.612;2024-03-02T08:38:27;39.72;;;16.45;;
11671;SDS011;5892;43.412;24.612;2024-03-02T08:40:54;27.50;;;13.25;;
11671;SDS011;5892;43.412;24.612;2024-03-02T08:43:20;34.13;;;14.00;;
11671;SDS011;5892;43.412;24.612;2024-03-02T08:45:53;24.52;;;11.77;;
11671;SDS011;5892;43.412;24.612;2024-03-02T08:48:19;24.45;;;12.13;;
11671;SDS011;5892;43.412;24.612;2024-03-02T08:50:46;39.13;;;17.10;;
11671;SDS011;5892;43.412;24.612;2024-03-02T08:53:11;51.30;;;23.60;;
11671;SDS011;5892;43.412;24.612;2024-03-02T08:55:44;55.08;;;23.60;;
11671;SDS011;5892;43.412;24.612;2024-03-02T08:58:13;34.17;;;14.15;;
11671;SDS011;5892;43.412;24.612;2024-03-02T09:00:39;29.67;;;14.50;;
11671;SDS011;5892;43.412;24.612;2024-03-02T09:03:05;27.67;;;13.20;;
11671;SDS011;5892;43.412;24.612;2024-03-02T09:05:31;26.02;;;11.68;;
11671;SDS011;5892;43.412;24.612;2024-03-02T09:07:58;30.67;;;14.45;;
11671;SDS011;5892;43.412;24.612;2024-03-02T09:10:23;32.25;;;14.55;;
11671;SDS011;5892;43.412;24.612;2024-03-02T09:12:49;26.73;;;13.27;;
11671;SDS011;5892;43.412;24.612;2024-03-02T09:15:20;26.55;;;12.98;;
11671;SDS011;5892;43.412;24.612;2024-03-02T09:17:46;37.20;;;13.43;;
11671;SDS011;5892;43.412;24.612;2024-03-02T09:20:12;25.42;;;13.45;;
11671;SDS011;5892;43.412;24.612;2024-03-02T09:22:40;42.05;;;22.63;;
11671;SDS011;5892;43.412;24.612;2024-03-02T09:25:06;31.35;;;15.40;;
11671;SDS011;5892;43.412;24.612;2024-03-02T09:27:35;23.50;;;10.70;;
11671;SDS011;5892;43.412;24.612;2024-03-02T09:30:03;29.15;;;13.63;;
11671;SDS011;5892;43.412;24.612;2024-03-02T09:32:30;30.00;;;12.55;;
11671;SDS011;5892;43.412;24.612;2024-03-02T09:34:56;31.45;;;15.50;;
11671;SDS011;5892;43.412;24.612;2024-03-02T09:37:23;33.70;;;15.63;;
11671;SDS011;5892;43.412;24.612;2024-03-02T09:39:49;34.22;;;14.07;;
11671;SDS011;5892;43.412;24.612;2024-03-02T09:42:14;29.23;;;13.35;;
11671;SDS011;5892;43.412;24.612;2024-03-02T09:44:42;40.83;;;15.02;;
11671;SDS011;5892;43.412;24.612;2024-03-02T09:47:08;27.13;;;14.95;;
11671;SDS011;5892;43.412;24.612;2024-03-02T09:49:34;33.35;;;16.75;;
11671;SDS011;5892;43.412;24.612;2024-03-02T09:52:01;34.10;;;16.20;;
11671;SDS011;5892;43.412;24.612;2024-03-02T09:54:28;42.40;;;18.77;;
11671;SDS011;5892;43.412;24.612;2024-03-02T09:56:54;37.35;;;19.77;;
11671;SDS011;5892;43.412;24.612;2024-03-02T09:59:19;42.97;;;19.42;;
11671;SDS011;5892;43.412;24.612;2024-03-02T10:02:03;44.28;;;20.05;;
11671;SDS011;5892;43.412;24.612;2024-03-02T10:04:32;40.70;;;19.92;;
11671;SDS011;5892;43.412;24.612;2024-03-02T10:07:19;39.20;;;18.15;;
11671;SDS011;5892;43.412;24.612;2024-03-02T10:09:45;45.08;;;22.40;;
11671;SDS011;5892;43.412;24.612;2024-03-02T10:12:12;36.42;;;17.42;;
11671;SDS011;5892;43.412;24.612;2024-03-02T10:14:40;39.72;;;18.77;;
11671;SDS011;5892;43.412;24.612;2024-03-02T10:17:09;40.97;;;18.92;;
11671;SDS011;5892;43.412;24.612;2024-03-02T10:19:36;31.20;;;16.10;;
11671;SDS011;5892;43.412;24.612;2024-03-02T10:22:03;35.25;;;17.02;;
11671;SDS011;5892;43.412;24.612;2024-03-02T10:24:39;34.42;;;14.85;;
11671;SDS011;5892;43.412;24.612;2024-03-02T10:27:09;22.85;;;12.20;;
11671;SDS011;5892;43.412;24.612;2024-03-02T10:29:42;23.50;;;13.25;;
11671;SDS011;5892;43.412;24.612;2024-03-02T10:32:11;28.90;;;14.88;;
11671;SDS011;5892;43.412;24.612;2024-03-02T10:34:39;22.23;;;13.73;;
11671;SDS011;5892;43.412;24.612;2024-03-02T10:37:06;28.77;;;12.90;;
11671;SDS011;5892;43.412;24.612;2024-03-02T10:39:35;31.65;;;12.80;;
11671;SDS011;5892;43.412;24.612;2024-03-02T10:42:02;26.45;;;12.23;;
11671;SDS011;5892;43.412;24.612;2024-03-02T10:44:28;23.52;;;12.43;;
11671;SDS011;5892;43.412;24.612;2024-03-02T10:47:01;28.17;;;13.52;;
11671;SDS011;5892;43.412;24.612;2024-03-02T10:49:29;27.77;;;13.48;;
11671;SDS011;5892;43.412;24.612;2024-03-02T10:51:57;29.60;;;11.80;;
11671;SDS011;5892;43.412;24.612;2024-03-02T10:54:26;30.48;;;13.43;;
11671;SDS011;5892;43.412;24.612;2024-03-02T10:56:55;28.15;;;12.25;;
11671;SDS011;5892;43.412;24.612;2024-03-02T11:01:56;26.60;;;12.52;;
11671;SDS011;5892;43.412;24.612;2024-03-02T11:04:26;28.15;;;12.10;;
11671;SDS011;5892;43.412;24.612;2024-03-02T11:06:54;35.90;;;15.90;;
11671;SDS011;5892;43.412;24.612;2024-03-02T11:09:25;37.53;;;16.95;;
11671;SDS011;5892;43.412;24.612;2024-03-02T11:12:02;29.23;;;13.88;;
11671;SDS011;5892;43.412;24.612;2024-03-02T11:14:34;26.17;;;14.05;;
11671;SDS011;5892;43.412;24.612;2024-03-02T11:17:05;26.25;;;13.88;;
11671;SDS011;5892;43.412;24.612;2024-03-02T11:19:31;27.58;;;13.27;;
11671;SDS011;5892;43.412;24.612;2024-03-02T11:21:59;30.38;;;14.20;;
11671;SDS011;5892;43.412;24.612;2024-03-02T11:26:58;26.75;;;12.30;;
11671;SDS011;5892;43.412;24.612;2024-03-02T11:32:04;30.60;;;13.35;;
11671;SDS011;5892;43.412;24.612;2024-03-02T11:34:32;28.20;;;13.63;;
11671;SDS011;5892;43.412;24.612;2024-03-02T11:37:03;28.88;;;15.00;;
11671;SDS011;5892;43.412;24.612;2024-03-02T11:39:30;29.63;;;14.13;;
11671;SDS011;5892;43.412;24.612;2024-03-02T11:41:57;29.65;;;15.13;;
11671;SDS011;5892;43.412;24.612;2024-03-02T11:44:29;30.88;;;13.95;;
11671;SDS011;5892;43.412;24.612;2024-03-02T11:46:58;28.95;;;15.60;;
11671;SDS011;5892;43.412;24.612;2024-03-02T11:52:03;33.40;;;16.80;;
11671;SDS011;5892;43.412;24.612;2024-03-02T11:54:32;31.15;;;16.25;;
11671;SDS011;5892;43.412;24.612;2024-03-02T11:56:59;36.10;;;16.23;;
11671;SDS011;5892;43.412;24.612;2024-03-02T11:59:27;42.38;;;20.23;;
11671;SDS011;5892;43.412;24.612;2024-03-02T12:01:54;38.30;;;17.42;;
11671;SDS011;5892;43.412;24.612;2024-03-02T12:04:20;42.08;;;17.10;;
11671;SDS011;5892;43.412;24.612;2024-03-02T12:06:48;29.05;;;12.75;;
11671;SDS011;5892;43.412;24.612;2024-03-02T12:12:00;23.75;;;11.05;;
11671;SDS011;5892;43.412;24.612;2024-03-02T12:14:29;22.88;;;11.93;;
11671;SDS011;5892;43.412;24.612;2024-03-02T12:16:55;28.67;;;14.98;;
11671;SDS011;5892;43.412;24.612;2024-03-02T12:19:21;35.67;;;16.85;;
11671;SDS011;5892;43.412;24.612;2024-03-02T12:21:46;36.42;;;14.60;;
11671;SDS011;5892;43.412;24.612;2024-03-02T12:24:12;28.23;;;12.55;;
11671;SDS011;5892;43.412;24.612;2024-03-02T12:26:38;22.35;;;12.77;;
11671;SDS011;5892;43.412;24.612;2024-03-02T12:29:04;37.40;;;18.27;;
11671;SDS011;5892;43.412;24.612;2024-03-02T12:31:30;32.42;;;15.25;;
11671;SDS011;5892;43.412;24.612;2024-03-02T12:33:55;24.35;;;13.00;;
11671;SDS011;5892;43.412;24.612;2024-03-02T12:36:21;25.40;;;12.13;;
11671;SDS011;5892;43.412;24.612;2024-03-02T12:38:47;41.30;;;16.33;;
11671;SDS011;5892;43.412;24.612;2024-03-02T12:41:16;36.53;;;14.60;;
11671;SDS011;5892;43.412;24.612;2024-03-02T12:43:41;33.78;;;14.18;;
11671;SDS011;5892;43.412;24.612;2024-03-02T12:46:07;38.58;;;17.95;;
11671;SDS011;5892;43.412;24.612;2024-03-02T12:48:33;39.28;;;17.17;;
11671;SDS011;5892;43.412;24.612;2024-03-02T12:51:01;32.17;;;14.60;;
11671;SDS011;5892;43.412;24.612;2024-03-02T12:53:27;35.63;;;15.48;;
11671;SDS011;5892;43.412;24.612;2024-03-02T12:55:52;38.35;;;17.38;;
11671;SDS011;5892;43.412;24.612;2024-03-02T12:58:19;37.13;;;17.05;;
11671;SDS011;5892;43.412;24.612;2024-03-02T13:00:48;41.45;;;20.02;;
11671;SDS011;5892;43.412;24.612;2024-03-02T13:03:14;37.75;;;18.95;;
11671;SDS011;5892;43.412;24.612;2024-03-02T13:05:48;42.83;;;21.42;;
11671;SDS011;5892;43.412;24.612;2024-03-02T13:08:14;39.95;;;20.48;;
11671;SDS011;5892;43.412;24.612;2024-03-02T13:10:40;36.70;;;15.65;;
11671;SDS011;5892;43.412;24.612;2024-03-02T13:13:06;41.35;;;17.58;;
11671;SDS011;5892;43.412;24.612;2024-03-02T13:15:32;36.50;;;18.02;;
11671;SDS011;5892;43.412;24.612;2024-03-02T13:17:58;39.33;;;17.73;;
11671;SDS011;5892;43.412;24.612;2024-03-02T13:20:35;42.17;;;18.25;;
11671;SDS011;5892;43.412;24.612;2024-03-02T13:23:03;30.10;;;15.40;;
11671;SDS011;5892;43.412;24.612;2024-03-02T13:25:28;28.08;;;14.23;;
11671;SDS011;5892;43.412;24.612;2024-03-02T13:27:55;27.73;;;15.57;;
11671;SDS011;5892;43.412;24.612;2024-03-02T13:30:21;35.03;;;17.08;;
11671;SDS011;5892;43.412;24.612;2024-03-02T13:32:47;35.95;;;18.20;;
11671;SDS011;5892;43.412;24.612;2024-03-02T13:35:13;31.70;;;15.13;;
11671;SDS011;5892;43.412;24.612;2024-03-02T13:37:38;27.50;;;13.60;;
11671;SDS011;5892;43.412;24.612;2024-03-02T13:40:04;35.50;;;13.82;;
11671;SDS011;5892;43.412;24.612;2024-03-02T13:42:30;42.42;;;17.15;;
11671;SDS011;5892;43.412;24.612;2024-03-02T13:44:56;29.10;;;13.95;;
11671;SDS011;5892;43.412;24.612;2024-03-02T13:47:22;28.77;;;13.30;;
11671;SDS011;5892;43.412;24.612;2024-03-02T13:49:47;31.25;;;14.18;;
11671;SDS011;5892;43.412;24.612;2024-03-02T13:52:14;29.60;;;13.55;;
11671;SDS011;5892;43.412;24.612;2024-03-02T13:54:40;25.50;;;12.93;;
11671;SDS011;5892;43.412;24.612;2024-03-02T13:57:07;29.52;;;12.45;;
11671;SDS011;5892;43.412;24.612;2024-03-02T13:59:34;59.97;;;24.00;;
11671;SDS011;5892;43.412;24.612;2024-03-02T14:02:00;60.88;;;25.08;;
11671;SDS011;5892;43.412;24.612;2024-03-02T14:04:29;33.85;;;14.95;;
11671;SDS011;5892;43.412;24.612;2024-03-02T14:06:58;29.73;;;14.85;;
11671;SDS011;5892;43.412;24.612;2024-03-02T14:09:24;27.20;;;14.85;;
11671;SDS011;5892;43.412;24.612;2024-03-02T14:11:52;31.95;;;18.00;;
11671;SDS011;5892;43.412;24.612;2024-03-02T14:14:18;53.75;;;27.15;;
11671;SDS011;5892;43.412;24.612;2024-03-02T14:16:44;32.58;;;16.95;;
11671;SDS011;5892;43.412;24.612;2024-03-02T14:19:10;33.67;;;17.05;;
11671;SDS011;5892;43.412;24.612;2024-03-02T14:21:37;29.55;;;14.07;;
11671;SDS011;5892;43.412;24.612;2024-03-02T14:24:05;28.38;;;14.27;;
11671;SDS011;5892;43.412;24.612;2024-03-02T14:26:34;25.65;;;14.77;;
11671;SDS011;5892;43.412;24.612;2024-03-02T14:29:00;26.23;;;12.95;;
11671;SDS011;5892;43.412;24.612;2024-03-02T14:31:29;24.58;;;13.15;;
11671;SDS011;5892;43.412;24.612;2024-03-02T14:33:57;34.42;;;15.20;;
11671;SDS011;5892;43.412;24.612;2024-03-02T14:36:23;27.10;;;13.35;;
11671;SDS011;5892;43.412;24.612;2024-03-02T14:38:49;28.83;;;13.82;;